createdAt,value
2022-10-13T00:00:58.632Z,101164.78
2022-10-13T00:03:25.557Z,101160.47
2022-10-13T00:05:52.438Z,101166.28
2022-10-13T00:08:21.594Z,101160.63
2022-10-13T00:10:50.864Z,101165.50
2022-10-13T00:13:22.251Z,101159.84
2022-10-13T00:15:49.058Z,101152.88
2022-10-13T00:18:16.700Z,101146.16
2022-10-13T00:20:46.610Z,101147.97
2022-10-13T00:23:14.005Z,101148.44
2022-10-13T00:25:46.498Z,101145.72
2022-10-13T00:28:14.435Z,101145.41
2022-10-13T00:30:41.533Z,101147.34
2022-10-13T00:33:09.358Z,101146.34
2022-10-13T00:35:44.423Z,101141.16
2022-10-13T00:38:11.868Z,101149.16
2022-10-13T00:40:48.850Z,101145.06
2022-10-13T00:43:19.770Z,101141.91
2022-10-13T00:45:49.849Z,101137.88
2022-10-13T00:48:27.612Z,101149.19
2022-10-13T00:50:55.342Z,101138.88
2022-10-13T00:53:24.360Z,101137.84
2022-10-13T00:55:52.218Z,101138.81
2022-10-13T00:58:23.294Z,101134.31
2022-10-13T01:00:52.297Z,101131.66
2022-10-13T01:03:20.672Z,101124.03
2022-10-13T01:05:48.466Z,101124.03
2022-10-13T01:08:15.585Z,101130.94
2022-10-13T01:11:03.572Z,101132.72
2022-10-13T01:13:37.699Z,101124.06
2022-10-13T01:16:04.970Z,101128.53
2022-10-13T01:18:43.879Z,101122.81
2022-10-13T01:21:17.961Z,101122.63
2022-10-13T01:24:22.754Z,101120.66
2022-10-13T01:27:08.168Z,101122.22
2022-10-13T01:29:56.414Z,101126.50
2022-10-13T01:32:29.562Z,101117.97
2022-10-13T01:34:57.971Z,101119.69
2022-10-13T01:38:16.567Z,101114.09
2022-10-13T01:40:49.990Z,101111.66
2022-10-13T01:43:19.620Z,101114.28
2022-10-13T01:46:02.279Z,101113.75
2022-10-13T01:48:29.960Z,101107.94
2022-10-13T01:50:58.503Z,101109.78
2022-10-13T01:53:26.147Z,101104.31
2022-10-13T01:55:58.644Z,101098.78
2022-10-13T01:58:35.490Z,101095.78
2022-10-13T02:01:41.251Z,101095.97
2022-10-13T02:04:34.968Z,101090.94
2022-10-13T02:07:14.409Z,101090.38
2022-10-13T02:09:50.489Z,101092.94
2022-10-13T02:12:24.411Z,101086.88
2022-10-13T02:14:53.132Z,101095.53
2022-10-13T02:17:20.185Z,101086.91
2022-10-13T02:19:46.947Z,101078.13
2022-10-13T02:22:16.028Z,101079.66
2022-10-13T02:24:42.970Z,101077.72
2022-10-13T02:27:09.669Z,101072.19
2022-10-13T02:29:56.145Z,101076.16
2022-10-13T02:32:27.213Z,101069.72
2022-10-13T02:34:53.864Z,101073.59
2022-10-13T02:37:20.518Z,101067.13
2022-10-13T02:39:47.307Z,101064.63
2022-10-13T02:42:16.554Z,101063.13
2022-10-13T02:44:43.179Z,101066.03
2022-10-13T02:47:09.781Z,101067.19
2022-10-13T02:49:36.457Z,101061.72
2022-10-13T02:52:03.131Z,101055.63
2022-10-13T02:54:29.721Z,101056.44
2022-10-13T02:56:56.302Z,101059.84
2022-10-13T02:59:22.979Z,101059.69
2022-10-13T03:01:49.530Z,101061.38
2022-10-13T03:04:16.244Z,101062.03
2022-10-13T03:06:42.831Z,101058.69
2022-10-13T03:09:10.566Z,101050.59
2022-10-13T03:11:38.557Z,101057.38
2022-10-13T03:14:05.189Z,101055.53
2022-10-13T03:16:31.810Z,101053.81
2022-10-13T03:18:58.455Z,101042.59
2022-10-13T03:21:25.733Z,101046.91
2022-10-13T03:23:52.409Z,101042.59
2022-10-13T03:26:19.067Z,101048.84
2022-10-13T03:28:50.641Z,101046.47
2022-10-13T03:31:17.939Z,101054.00
2022-10-13T03:33:45.725Z,101047.47
2022-10-13T03:36:15.746Z,101043.28
2022-10-13T03:38:42.404Z,101044.47
2022-10-13T03:41:12.288Z,101038.19
2022-10-13T03:43:39.691Z,101045.44
2022-10-13T03:46:07.824Z,101049.16
2022-10-13T03:48:35.658Z,101049.34
2022-10-13T03:51:11.732Z,101047.72
2022-10-13T03:53:44.966Z,101047.72
2022-10-13T03:56:17.751Z,101040.00
2022-10-13T03:58:54.148Z,101049.22
2022-10-13T04:01:26.892Z,101034.09
2022-10-13T04:03:55.750Z,101038.38
2022-10-13T04:06:23.144Z,101032.16
2022-10-13T04:08:50.185Z,101032.91
2022-10-13T04:11:17.390Z,101039.53
2022-10-13T04:13:47.097Z,101037.50
2022-10-13T04:16:19.540Z,101036.69
2022-10-13T04:18:50.791Z,101041.97
2022-10-13T04:21:17.385Z,101032.63
2022-10-13T04:23:43.980Z,101036.16
2022-10-13T04:26:22.268Z,101028.31
2022-10-13T04:28:50.226Z,101017.31
2022-10-13T04:31:17.624Z,101031.84
2022-10-13T04:33:45.267Z,101032.88
2022-10-13T04:36:12.880Z,101034.28
2022-10-13T04:38:40.254Z,101022.03
2022-10-13T04:41:08.954Z,101019.63
2022-10-13T04:43:36.046Z,101016.91
2022-10-13T04:46:14.681Z,101022.94
2022-10-13T04:48:41.817Z,101026.09
2022-10-13T04:51:16.642Z,101029.19
2022-10-13T04:53:43.318Z,101021.59
2022-10-13T04:56:14.534Z,101028.31
2022-10-13T04:58:42.774Z,101030.34
2022-10-13T05:01:18.853Z,101024.97
2022-10-13T05:03:50.236Z,101030.59
2022-10-13T05:06:22.391Z,101025.97
2022-10-13T05:08:49.728Z,101016.72
2022-10-13T05:11:16.890Z,101016.50
2022-10-13T05:13:43.523Z,101011.06
2022-10-13T05:16:11.886Z,101012.66
2022-10-13T05:18:39.506Z,101004.06
2022-10-13T05:21:15.690Z,101015.81
2022-10-13T05:23:43.363Z,101013.47
2022-10-13T05:26:11.475Z,101013.84
2022-10-13T05:28:38.882Z,101011.31
2022-10-13T05:31:20.822Z,101003.63
2022-10-13T05:33:48.656Z,101010.38
2022-10-13T05:36:32.105Z,101011.06
2022-10-13T05:39:01.121Z,101006.75
2022-10-13T05:41:28.893Z,101010.31
2022-10-13T05:44:03.316Z,101001.38
2022-10-13T05:46:30.315Z,101004.78
2022-10-13T05:48:56.935Z,101007.28
2022-10-13T05:51:28.306Z,101016.34
2022-10-13T05:54:02.280Z,101007.34
2022-10-13T05:56:34.983Z,101014.03
2022-10-13T05:59:06.798Z,101000.13
2022-10-13T06:01:39.832Z,101004.16
2022-10-13T06:04:12.063Z,100994.78
2022-10-13T06:06:40.107Z,101001.34
2022-10-13T06:09:06.931Z,100991.13
2022-10-13T06:11:33.644Z,100983.47
2022-10-13T06:14:00.298Z,100980.38
2022-10-13T06:16:27.097Z,100986.53
2022-10-13T06:18:54.823Z,100982.97
2022-10-13T06:21:22.023Z,100985.28
2022-10-13T06:23:48.619Z,100979.56
2022-10-13T06:26:17.866Z,100980.56
2022-10-13T06:28:49.123Z,100973.78
2022-10-13T06:31:17.961Z,100972.34
2022-10-13T06:33:44.988Z,100980.75
2022-10-13T06:36:11.647Z,100974.09
2022-10-13T06:38:38.276Z,100984.16
2022-10-13T06:41:05.579Z,100981.00
2022-10-13T06:43:40.212Z,100977.28
2022-10-13T06:46:11.873Z,100980.06
2022-10-13T06:48:38.798Z,100982.13
2022-10-13T06:51:08.206Z,100975.56
2022-10-13T06:53:35.634Z,100971.22
2022-10-13T06:56:05.583Z,100973.41
2022-10-13T06:58:32.635Z,100975.75
2022-10-13T07:00:59.311Z,100969.03
2022-10-13T07:03:26.135Z,100971.13
2022-10-13T07:05:53.008Z,100974.63
2022-10-13T07:08:20.755Z,100978.41
2022-10-13T07:10:47.387Z,100977.97
2022-10-13T07:13:14.097Z,100981.63
2022-10-13T07:15:41.137Z,100983.88
2022-10-13T07:18:07.873Z,100986.06
2022-10-13T07:20:35.250Z,100980.59
2022-10-13T07:23:02.041Z,100986.13
2022-10-13T07:25:28.781Z,100982.41
2022-10-13T07:27:55.635Z,100981.16
2022-10-13T07:30:22.348Z,100983.00
2022-10-13T07:32:49.497Z,100985.25
2022-10-13T07:35:16.198Z,100982.13
2022-10-13T07:37:42.860Z,100980.06
2022-10-13T07:40:10.134Z,100985.22
2022-10-13T07:42:36.824Z,100980.34
2022-10-13T07:45:03.958Z,100972.59
2022-10-13T07:47:31.137Z,100970.88
2022-10-13T07:49:57.723Z,100975.94
2022-10-13T07:52:24.440Z,100967.44
2022-10-13T07:54:51.654Z,100967.59
2022-10-13T07:57:18.514Z,100973.69
2022-10-13T07:59:45.256Z,100973.47
2022-10-13T08:02:13.263Z,100967.00
2022-10-13T08:04:40.022Z,100973.59
2022-10-13T08:07:07.337Z,100969.72
2022-10-13T08:09:34.225Z,100968.44
2022-10-13T08:12:02.083Z,100963.84
2022-10-13T08:14:30.077Z,100967.00
2022-10-13T08:16:58.056Z,100966.91
2022-10-13T08:19:26.534Z,100962.97
2022-10-13T08:21:58.367Z,100968.03
2022-10-13T08:24:26.927Z,100975.31
2022-10-13T08:26:53.599Z,100972.53
2022-10-13T08:29:23.050Z,100976.41
2022-10-13T08:31:52.198Z,100965.19
2022-10-13T08:34:19.376Z,100969.69
2022-10-13T08:36:46.236Z,100957.81
2022-10-13T08:39:14.007Z,100975.97
2022-10-13T08:41:46.433Z,100973.25
2022-10-13T08:45:10.941Z,100972.97
2022-10-13T08:47:40.267Z,100965.09
2022-10-13T08:50:20.977Z,100969.41
2022-10-13T08:52:47.983Z,100970.78
2022-10-13T08:55:24.797Z,100966.81
2022-10-13T08:57:51.991Z,100960.59
2022-10-13T09:00:21.812Z,100960.75
2022-10-13T09:02:51.676Z,100959.88
2022-10-13T09:05:41.400Z,100961.31
2022-10-13T09:08:19.555Z,100963.41
2022-10-13T09:10:47.177Z,100949.56
2022-10-13T09:13:18.542Z,100933.91
2022-10-13T09:15:52.629Z,100919.94
2022-10-13T09:18:21.233Z,100937.00
2022-10-13T09:20:47.853Z,100934.09
2022-10-13T09:23:14.441Z,100920.84
2022-10-13T09:25:48.276Z,100907.16
2022-10-13T09:28:30.118Z,100921.25
2022-10-13T09:31:04.966Z,100912.59
2022-10-13T09:33:36.763Z,100901.16
2022-10-13T09:36:03.360Z,100901.72
2022-10-13T09:38:29.943Z,100912.88
2022-10-13T09:41:03.793Z,100914.88
2022-10-13T09:43:36.667Z,100905.56
2022-10-13T09:46:18.749Z,100904.78
2022-10-13T09:48:50.580Z,100908.00
2022-10-13T09:51:37.675Z,100922.41
2022-10-13T09:54:33.574Z,100901.50
2022-10-13T09:57:11.920Z,100909.38
2022-10-13T09:59:45.682Z,100919.47
2022-10-13T10:02:33.612Z,100923.94
2022-10-13T10:05:16.933Z,100919.41
2022-10-13T10:07:47.688Z,100916.97
2022-10-13T10:10:36.049Z,100919.84
2022-10-13T10:13:12.803Z,100923.03
2022-10-13T10:16:02.716Z,100921.44
2022-10-13T10:18:45.080Z,100915.31
2022-10-13T10:21:49.980Z,100906.13
2022-10-13T10:24:19.528Z,100919.88
2022-10-13T10:27:06.694Z,100918.56
2022-10-13T10:29:56.174Z,100907.81
2022-10-13T10:32:40.198Z,100923.53
2022-10-13T10:35:33.032Z,100914.75
2022-10-13T10:38:24.397Z,100910.84
2022-10-13T10:41:03.861Z,100911.16
2022-10-13T10:43:49.008Z,100910.69
2022-10-13T10:46:23.249Z,100900.75
2022-10-13T10:48:54.977Z,100903.53
2022-10-13T10:51:30.850Z,100892.72
2022-10-13T10:54:18.981Z,100885.28
2022-10-13T10:57:08.452Z,100883.56
2022-10-13T10:59:50.792Z,100884.13
2022-10-13T11:02:36.343Z,100876.22
2022-10-13T11:05:06.389Z,100871.13
2022-10-13T11:07:33.312Z,100870.75
2022-10-13T11:09:59.853Z,100864.38
2022-10-13T11:12:46.443Z,100863.88
2022-10-13T11:15:20.909Z,100859.75
2022-10-13T11:17:47.554Z,100859.00
2022-10-13T11:20:17.156Z,100860.34
2022-10-13T11:23:03.727Z,100855.03
2022-10-13T11:25:47.682Z,100851.09
2022-10-13T11:28:23.187Z,100859.94
2022-10-13T11:30:55.456Z,100842.28
2022-10-13T11:33:38.614Z,100846.53
2022-10-13T11:36:33.133Z,100837.03
2022-10-13T11:39:17.549Z,100839.63
2022-10-13T11:42:02.776Z,100833.53
2022-10-13T11:44:58.008Z,100837.69
2022-10-13T11:47:56.555Z,100834.88
2022-10-13T11:50:48.562Z,100816.56
2022-10-13T11:53:22.794Z,100819.28
2022-10-13T11:55:58.306Z,100821.00
2022-10-13T11:58:27.744Z,100821.72
2022-10-13T12:01:06.559Z,100826.97
2022-10-13T12:03:38.222Z,100829.13
2022-10-13T12:06:32.303Z,100823.03
2022-10-13T12:09:02.293Z,100818.56
2022-10-13T12:11:33.817Z,100808.59
2022-10-13T12:14:01.469Z,100807.31
2022-10-13T12:16:29.522Z,100811.94
2022-10-13T12:19:19.041Z,100800.63
2022-10-13T12:21:53.609Z,100805.97
2022-10-13T12:24:23.703Z,100804.25
2022-10-13T12:26:51.363Z,100804.72
2022-10-13T12:29:21.430Z,100802.34
2022-10-13T12:31:50.030Z,100796.53
2022-10-13T12:34:30.948Z,100787.06
2022-10-13T12:37:18.814Z,100786.31
2022-10-13T12:39:46.261Z,100787.84
2022-10-13T12:42:15.290Z,100786.38
2022-10-13T12:44:42.366Z,100782.47
2022-10-13T12:47:44.016Z,100781.19
2022-10-13T12:50:23.768Z,100778.13
2022-10-13T12:53:03.227Z,100766.81
2022-10-13T12:55:30.184Z,100768.47
2022-10-13T12:57:56.951Z,100766.00
2022-10-13T13:00:26.806Z,100765.63
2022-10-13T13:03:06.149Z,100755.75
2022-10-13T13:05:40.716Z,100765.00
2022-10-13T13:08:29.691Z,100756.75
2022-10-13T13:10:58.305Z,100758.34
2022-10-13T13:13:25.437Z,100760.75
2022-10-13T13:15:52.996Z,100752.94
2022-10-13T13:18:32.197Z,100761.72
2022-10-13T13:20:58.895Z,100756.28
2022-10-13T13:23:27.240Z,100751.69
2022-10-13T13:26:23.485Z,100748.81
2022-10-13T13:28:52.719Z,100760.44
2022-10-13T13:31:22.312Z,100762.22
2022-10-13T13:33:49.659Z,100755.34
2022-10-13T13:36:19.284Z,100752.56
2022-10-13T13:38:47.967Z,100751.16
2022-10-13T13:41:15.919Z,100753.69
2022-10-13T13:43:42.708Z,100750.53
2022-10-13T13:46:19.540Z,100742.94
2022-10-13T13:48:46.280Z,100745.41
2022-10-13T13:51:13.424Z,100751.50
2022-10-13T13:53:40.436Z,100747.13
2022-10-13T13:56:12.921Z,100745.88
2022-10-13T13:58:39.682Z,100742.94
2022-10-13T14:01:06.271Z,100748.31
2022-10-13T14:03:32.959Z,100744.66
2022-10-13T14:05:59.529Z,100742.94
2022-10-13T14:08:31.272Z,100738.78
2022-10-13T14:10:58.782Z,100739.75
2022-10-13T14:13:25.421Z,100742.63
2022-10-13T14:15:59.776Z,100735.06
2022-10-13T14:18:26.924Z,100739.38
2022-10-13T14:20:53.606Z,100747.81
2022-10-13T14:23:20.311Z,100741.59
2022-10-13T14:25:46.867Z,100739.13
2022-10-13T14:28:18.020Z,100739.88
2022-10-13T14:30:45.297Z,100740.44
2022-10-13T14:33:11.939Z,100738.63
2022-10-13T14:35:38.556Z,100741.41
2022-10-13T14:38:05.975Z,100744.16
2022-10-13T14:40:33.682Z,100738.97
2022-10-13T14:43:00.252Z,100734.53
2022-10-13T14:45:27.098Z,100735.94
2022-10-13T14:47:53.739Z,100734.13
2022-10-13T14:50:20.391Z,100736.31
2022-10-13T14:52:51.812Z,100738.34
2022-10-13T14:55:18.405Z,100742.44
2022-10-13T14:57:45.068Z,100738.31
2022-10-13T15:00:13.660Z,100730.69
2022-10-13T15:02:40.348Z,100732.94
2022-10-13T15:05:07.248Z,100736.88
2022-10-13T15:07:36.802Z,100735.88
2022-10-13T15:10:06.646Z,100737.88
2022-10-13T15:12:33.713Z,100732.19
2022-10-13T15:15:00.343Z,100723.31
2022-10-13T15:17:28.005Z,100721.28
2022-10-13T15:19:54.732Z,100721.00
2022-10-13T15:22:21.654Z,100723.22
2022-10-13T15:24:48.382Z,100723.84
2022-10-13T15:27:15.283Z,100723.44
2022-10-13T15:29:41.913Z,100724.41
2022-10-13T15:32:12.491Z,100732.09
2022-10-13T15:34:40.126Z,100730.44
2022-10-13T15:37:07.057Z,100732.94
2022-10-13T15:39:33.821Z,100730.03
2022-10-13T15:42:00.412Z,100731.25
2022-10-13T15:44:27.660Z,100729.22
2022-10-13T15:47:07.380Z,100719.41
2022-10-13T15:49:39.442Z,100726.81
2022-10-13T15:52:06.295Z,100720.88
2022-10-13T15:54:32.994Z,100725.78
2022-10-13T15:56:59.859Z,100721.28
2022-10-13T15:59:26.426Z,100713.59
2022-10-13T16:01:53.077Z,100711.47
2022-10-13T16:04:19.678Z,100717.34
2022-10-13T16:06:46.353Z,100723.66
2022-10-13T16:09:12.944Z,100719.38
2022-10-13T16:11:39.688Z,100717.13
2022-10-13T16:14:06.281Z,100717.75
2022-10-13T16:16:32.899Z,100714.41
2022-10-13T16:19:00.123Z,100715.34
2022-10-13T16:21:26.951Z,100725.09
2022-10-13T16:23:53.549Z,100724.75
2022-10-13T16:26:20.892Z,100722.19
2022-10-13T16:28:47.771Z,100716.81
2022-10-13T16:31:16.219Z,100722.56
2022-10-13T16:33:44.151Z,100729.91
2022-10-13T16:36:13.800Z,100723.38
2022-10-13T16:38:45.921Z,100722.47
2022-10-13T16:41:15.570Z,100724.75
2022-10-13T16:43:43.163Z,100724.22
2022-10-13T16:46:13.465Z,100719.00
2022-10-13T16:48:41.709Z,100719.84
2022-10-13T16:51:11.505Z,100717.22
2022-10-13T16:53:38.820Z,100715.50
2022-10-13T16:56:06.798Z,100720.09
2022-10-13T16:58:33.713Z,100710.31
2022-10-13T17:01:09.439Z,100709.03
2022-10-13T17:03:36.981Z,100717.53
2022-10-13T17:06:03.881Z,100712.16
2022-10-13T17:08:31.070Z,100712.69
2022-10-13T17:10:59.428Z,100715.19
2022-10-13T17:13:26.453Z,100707.22
2022-10-13T17:15:54.823Z,100700.69
2022-10-13T17:18:21.996Z,100703.22
2022-10-13T17:20:59.429Z,100705.75
2022-10-13T17:23:27.042Z,100699.47
2022-10-13T17:25:54.156Z,100709.88
2022-10-13T17:28:21.230Z,100705.91
2022-10-13T17:31:09.525Z,100702.47
2022-10-13T17:33:37.684Z,100710.03
2022-10-13T17:36:13.380Z,100709.31
2022-10-13T17:38:40.735Z,100711.25
2022-10-13T17:41:09.503Z,100709.81
2022-10-13T17:43:41.184Z,100709.16
2022-10-13T17:46:40.815Z,100706.09
2022-10-13T17:49:10.962Z,100709.66
2022-10-13T17:51:38.145Z,100713.50
2022-10-13T17:54:04.949Z,100707.44
2022-10-13T17:56:31.865Z,100713.13
2022-10-13T17:58:59.375Z,100706.28
2022-10-13T18:01:27.717Z,100704.56
2022-10-13T18:03:57.008Z,100702.66
2022-10-13T18:06:32.632Z,100695.34
2022-10-13T18:09:09.975Z,100704.44
2022-10-13T18:11:37.421Z,100704.56
2022-10-13T18:14:04.570Z,100708.94
2022-10-13T18:16:31.298Z,100705.53
2022-10-13T18:18:57.879Z,100706.69
2022-10-13T18:21:27.774Z,100708.41
2022-10-13T18:23:56.095Z,100706.75
2022-10-13T18:26:24.024Z,100702.09
2022-10-13T18:28:51.463Z,100708.38
2022-10-13T18:31:24.257Z,100708.94
2022-10-13T18:33:56.309Z,100700.19
2022-10-13T18:36:24.649Z,100705.03
2022-10-13T18:38:52.519Z,100704.34
2022-10-13T18:41:21.340Z,100703.00
2022-10-13T18:43:48.124Z,100703.81
2022-10-13T18:46:19.049Z,100704.97
2022-10-13T18:48:47.745Z,100705.91
2022-10-13T18:51:16.722Z,100707.06
2022-10-13T18:53:45.692Z,100709.88
2022-10-13T18:56:19.054Z,100706.28
2022-10-13T18:58:46.242Z,100708.00
2022-10-13T19:01:16.196Z,100697.81
2022-10-13T19:03:43.496Z,100703.44
2022-10-13T19:06:13.322Z,100696.38
2022-10-13T19:08:42.370Z,100703.59
2022-10-13T19:11:12.551Z,100705.25
2022-10-13T19:13:39.895Z,100707.19
2022-10-13T19:16:07.506Z,100703.72
2022-10-13T19:18:34.969Z,100704.50
2022-10-13T19:21:01.752Z,100696.72
2022-10-13T19:23:28.381Z,100704.34
2022-10-13T19:25:55.102Z,100701.47
2022-10-13T19:28:22.456Z,100696.38
2022-10-13T19:30:54.487Z,100703.13
2022-10-13T19:33:21.155Z,100696.84
2022-10-13T19:35:49.273Z,100697.16
2022-10-13T19:38:16.455Z,100700.72
2022-10-13T19:40:46.384Z,100708.47
2022-10-13T19:43:13.069Z,100700.28
2022-10-13T19:45:47.638Z,100700.66
2022-10-13T19:48:16.074Z,100706.06
2022-10-13T19:50:43.723Z,100709.50
2022-10-13T19:53:13.708Z,100707.88
2022-10-13T19:55:42.319Z,100709.78
2022-10-13T19:58:09.581Z,100704.50
2022-10-13T20:00:36.787Z,100706.44
2022-10-13T20:03:04.806Z,100703.59
2022-10-13T20:05:31.727Z,100702.38
2022-10-13T20:07:58.376Z,100703.09
2022-10-13T20:10:25.147Z,100700.75
2022-10-13T20:12:52.026Z,100701.66
2022-10-13T20:15:18.700Z,100696.91
2022-10-13T20:17:45.822Z,100703.47
2022-10-13T20:20:12.640Z,100706.44
2022-10-13T20:22:39.859Z,100713.28
2022-10-13T20:25:07.712Z,100712.66
2022-10-13T20:27:34.511Z,100714.56
2022-10-13T20:30:01.422Z,100714.56
2022-10-13T20:32:28.314Z,100714.72
2022-10-13T20:34:54.908Z,100717.44
2022-10-13T20:37:22.037Z,100719.16
2022-10-13T20:39:48.805Z,100708.56
2022-10-13T20:42:15.389Z,100718.69
2022-10-13T20:44:42.076Z,100728.09
2022-10-13T20:47:08.653Z,100724.84
2022-10-13T20:49:35.352Z,100717.50
2022-10-13T20:52:01.950Z,100721.44
2022-10-13T20:54:28.535Z,100721.78
2022-10-13T20:56:56.214Z,100726.56
2022-10-13T20:59:22.896Z,100716.72
2022-10-13T21:01:49.646Z,100714.59
2022-10-13T21:04:16.568Z,100716.31
2022-10-13T21:06:43.280Z,100717.50
2022-10-13T21:09:10.889Z,100730.94
2022-10-13T21:11:40.162Z,100727.69
2022-10-13T21:14:08.599Z,100728.03
2022-10-13T21:16:37.294Z,100728.53
2022-10-13T21:19:08.553Z,100727.66
2022-10-13T21:21:36.058Z,100730.88
2022-10-13T21:24:05.175Z,100734.22
2022-10-13T21:26:32.866Z,100727.53
2022-10-13T21:29:00.179Z,100731.97
2022-10-13T21:31:27.959Z,100729.06
2022-10-13T21:33:55.443Z,100718.75
2022-10-13T21:36:29.383Z,100725.31
2022-10-13T21:38:58.802Z,100714.44
2022-10-13T21:41:26.222Z,100725.28
2022-10-13T21:43:52.999Z,100721.69
2022-10-13T21:46:28.575Z,100714.97
2022-10-13T21:48:57.655Z,100711.44
2022-10-13T21:51:29.946Z,100709.66
2022-10-13T21:53:59.865Z,100707.41
2022-10-13T21:56:27.946Z,100713.59
2022-10-13T21:58:55.071Z,100700.38
2022-10-13T22:01:22.713Z,100701.38
2022-10-13T22:03:53.533Z,100706.53
2022-10-13T22:06:23.614Z,100702.19
2022-10-13T22:08:51.631Z,100714.22
2022-10-13T22:11:23.482Z,100708.91
2022-10-13T22:13:50.713Z,100710.63
2022-10-13T22:16:20.285Z,100720.00
2022-10-13T22:18:47.502Z,100703.88
2022-10-13T22:21:19.536Z,100706.09
2022-10-13T22:23:46.415Z,100705.50
2022-10-13T22:26:14.451Z,100707.75
2022-10-13T22:28:42.596Z,100706.03
2022-10-13T22:31:12.136Z,100701.63
2022-10-13T22:33:40.290Z,100702.66
2022-10-13T22:36:18.772Z,100695.22
2022-10-13T22:38:46.413Z,100693.50
2022-10-13T22:41:14.710Z,100693.69
2022-10-13T22:43:46.646Z,100689.09
2022-10-13T22:46:15.726Z,100691.25
2022-10-13T22:48:42.813Z,100688.91
2022-10-13T22:51:15.575Z,100693.34
2022-10-13T22:53:42.270Z,100696.06
2022-10-13T22:56:11.625Z,100691.09
2022-10-13T22:58:38.478Z,100684.66
2022-10-13T23:01:14.621Z,100679.94
2022-10-13T23:03:41.912Z,100684.19
2022-10-13T23:06:13.705Z,100684.25
2022-10-13T23:08:41.074Z,100688.69
2022-10-13T23:11:07.820Z,100691.09
2022-10-13T23:13:34.460Z,100694.13
2022-10-13T23:16:16.178Z,100698.97
2022-10-13T23:18:43.542Z,100687.38
2022-10-13T23:21:24.443Z,100692.41
2022-10-13T23:24:05.630Z,100686.72
2022-10-13T23:26:33.735Z,100684.25
2022-10-13T23:29:00.657Z,100687.66
2022-10-13T23:31:28.176Z,100682.50
2022-10-13T23:33:55.270Z,100679.25
2022-10-13T23:36:24.655Z,100680.50
2022-10-13T23:38:58.544Z,100674.69
2022-10-13T23:41:26.196Z,100668.53
2022-10-13T23:43:52.833Z,100673.94
2022-10-13T23:46:19.870Z,100677.78
2022-10-13T23:48:46.435Z,100676.09
2022-10-13T23:51:19.003Z,100676.28
2022-10-13T23:53:46.425Z,100676.59
2022-10-13T23:56:15.231Z,100670.09
2022-10-13T23:58:43.682Z,100674.38
